sensor_id;sensor_type;location;lat;lon;timestamp;pressure;altitude;pressure_sealevel;temperature;humidity
57192;BME280;43052;52.588;13.396;2024-02-15T00:02:03;101299.75;;;9.78;100.00
57192;BME280;43052;52.588;13.396;2024-02-15T00:04:29;101296.28;;;9.79;100.00
57192;BME280;43052;52.588;13.396;2024-02-15T00:06:54;101297.19;;;9.81;100.00
57192;BME280;43052;52.588;13.396;2024-02-15T00:09:20;101299.78;;;9.82;100.00
57192;BME280;43052;52.588;13.396;2024-02-15T00:11:45;101291.94;;;9.81;100.00
57192;BME280;43052;52.588;13.396;2024-02-15T00:14:10;101302.41;;;9.84;100.00
57192;BME280;43052;52.588;13.396;2024-02-15T00:16:37;101292.84;;;9.84;100.00
57192;BME280;43052;52.588;13.396;2024-02-15T00:19:02;101292.84;;;9.87;100.00
57192;BME280;43052;52.588;13.396;2024-02-15T00:21:28;101291.13;;;9.88;100.00
57192;BME280;43052;52.588;13.396;2024-02-15T00:23:54;101291.16;;;9.93;100.00
57192;BME280;43052;52.588;13.396;2024-02-15T00:26:21;101282.41;;;9.89;100.00
57192;BME280;43052;52.588;13.396;2024-02-15T00:28:46;101293.75;;;9.94;100.00
57192;BME280;43052;52.588;13.396;2024-02-15T00:31:12;101289.38;;;9.93;100.00
57192;BME280;43052;52.588;13.396;2024-02-15T00:33:38;101277.19;;;9.92;100.00
57192;BME280;43052;52.588;13.396;2024-02-15T00:36:04;101290.28;;;9.95;100.00
57192;BME280;43052;52.588;13.396;2024-02-15T00:38:31;101292.00;;;9.93;100.00
57192;BME280;43052;52.588;13.396;2024-02-15T00:40:57;101286.78;;;9.92;100.00
57192;BME280;43052;52.588;13.396;2024-02-15T00:43:26;101284.13;;;9.88;100.00
57192;BME280;43052;52.588;13.396;2024-02-15T00:45:51;101290.22;;;9.87;100.00
57192;BME280;43052;52.588;13.396;2024-02-15T00:48:17;101301.59;;;9.93;100.00
57192;BME280;43052;52.588;13.396;2024-02-15T00:50:43;101290.25;;;9.89;100.00
57192;BME280;43052;52.588;13.396;2024-02-15T00:53:08;101292.88;;;9.89;100.00
57192;BME280;43052;52.588;13.396;2024-02-15T00:55:34;101290.25;;;9.91;100.00
57192;BME280;43052;52.588;13.396;2024-02-15T00:57:59;101291.13;;;9.88;100.00
57192;BME280;43052;52.588;13.396;2024-02-15T01:00:24;101291.13;;;9.88;100.00
57192;BME280;43052;52.588;13.396;2024-02-15T01:02:51;101293.75;;;9.91;100.00
57192;BME280;43052;52.588;13.396;2024-02-15T01:05:18;101280.66;;;9.90;100.00
57192;BME280;43052;52.588;13.396;2024-02-15T01:07:44;101291.16;;;9.93;100.00
57192;BME280;43052;52.588;13.396;2024-02-15T01:10:09;101291.97;;;9.87;100.00
57192;BME280;43052;52.588;13.396;2024-02-15T01:12:35;101274.56;;;9.84;100.00
57192;BME280;43052;52.588;13.396;2024-02-15T01:15:01;101278.88;;;9.84;100.00
57192;BME280;43052;52.588;13.396;2024-02-15T01:17:26;101293.75;;;9.94;100.00
57192;BME280;43052;52.588;13.396;2024-02-15T01:19:52;101289.38;;;9.93;100.00
57192;BME280;43052;52.588;13.396;2024-02-15T01:22:18;101284.19;;;9.96;100.00
57192;BME280;43052;52.588;13.396;2024-02-15T01:24:45;101277.22;;;9.95;100.00
57192;BME280;43052;52.588;13.396;2024-02-15T01:27:10;101279.81;;;9.97;100.00
57192;BME280;43052;52.588;13.396;2024-02-15T01:29:36;101276.34;;;9.96;100.00
57192;BME280;43052;52.588;13.396;2024-02-15T01:32:01;101282.47;;;9.98;100.00
57192;BME280;43052;52.588;13.396;2024-02-15T01:34:28;101285.06;;;10.01;100.00
57192;BME280;43052;52.588;13.396;2024-02-15T01:36:53;101281.63;;;9.99;100.00
57192;BME280;43052;52.588;13.396;2024-02-15T01:39:19;101272.03;;;9.98;100.00
57192;BME280;43052;52.588;13.396;2024-02-15T01:41:48;101279.03;;;10.06;100.00
57192;BME280;43052;52.588;13.396;2024-02-15T01:44:17;101278.13;;;10.02;100.00
57192;BME280;43052;52.588;13.396;2024-02-15T01:46:43;101279.00;;;10.01;100.00
57192;BME280;43052;52.588;13.396;2024-02-15T01:49:09;101272.91;;;10.00;100.00
57192;BME280;43052;52.588;13.396;2024-02-15T01:51:35;101274.66;;;10.03;100.00
57192;BME280;43052;52.588;13.396;2024-02-15T01:54:03;101279.84;;;10.01;100.00
57192;BME280;43052;52.588;13.396;2024-02-15T01:56:29;101266.78;;;9.98;100.00
57192;BME280;43052;52.588;13.396;2024-02-15T01:58:57;101271.16;;;9.99;100.00
57192;BME280;43052;52.588;13.396;2024-02-15T02:01:22;101264.16;;;9.97;100.00
57192;BME280;43052;52.588;13.396;2024-02-15T02:04:13;101265.91;;;9.95;100.00
57192;BME280;43052;52.588;13.396;2024-02-15T02:06:39;101255.44;;;9.93;100.00
57192;BME280;43052;52.588;13.396;2024-02-15T02:09:05;101260.66;;;9.93;100.00
57192;BME280;43052;52.588;13.396;2024-02-15T02:11:30;101265.03;;;9.91;100.00
57192;BME280;43052;52.588;13.396;2024-02-15T02:13:56;101258.03;;;9.88;100.00
57192;BME280;43052;52.588;13.396;2024-02-15T02:16:30;101256.28;;;9.91;100.00
57192;BME280;43052;52.588;13.396;2024-02-15T02:19:01;101252.81;;;9.90;100.00
57192;BME280;43052;52.588;13.396;2024-02-15T02:21:27;101262.41;;;9.93;100.00
57192;BME280;43052;52.588;13.396;2024-02-15T02:23:56;101265.03;;;9.97;100.00
57192;BME280;43052;52.588;13.396;2024-02-15T02:26:22;101266.78;;;10.00;100.00
57192;BME280;43052;52.588;13.396;2024-02-15T02:28:48;101258.06;;;9.96;100.00
57192;BME280;43052;52.588;13.396;2024-02-15T02:31:14;101269.41;;;9.98;100.00
57192;BME280;43052;52.588;13.396;2024-02-15T02:33:47;101254.59;;;9.96;100.00
57192;BME280;43052;52.588;13.396;2024-02-15T02:36:12;101260.69;;;10.01;100.00
57192;BME280;43052;52.588;13.396;2024-02-15T02:38:38;101254.59;;;9.96;100.00
57192;BME280;43052;52.588;13.396;2024-02-15T02:41:04;101262.44;;;9.97;100.00
57192;BME280;43052;52.588;13.396;2024-02-15T02:43:29;101269.44;;;10.04;100.00
57192;BME280;43052;52.588;13.396;2024-02-15T02:45:55;101274.66;;;10.06;100.00
57192;BME280;43052;52.588;13.396;2024-02-15T02:48:20;101265.06;;;10.03;100.00
57192;BME280;43052;52.588;13.396;2024-02-15T02:50:47;101265.97;;;10.04;100.00
57192;BME280;43052;52.588;13.396;2024-02-15T02:53:13;101260.72;;;10.04;100.00
57192;BME280;43052;52.588;13.396;2024-02-15T02:55:40;101269.47;;;10.08;100.00
57192;BME280;43052;52.588;13.396;2024-02-15T02:58:06;101272.94;;;10.11;100.00
57192;BME280;43052;52.588;13.396;2024-02-15T03:00:32;101270.34;;;10.16;100.00
57192;BME280;43052;52.588;13.396;2024-02-15T03:02:58;101266.88;;;10.18;100.00
57192;BME280;43052;52.588;13.396;2024-02-15T03:05:25;101270.38;;;10.21;100.00
57192;BME280;43052;52.588;13.396;2024-02-15T03:07:51;101272.13;;;10.22;100.00
57192;BME280;43052;52.588;13.396;2024-02-15T03:10:17;101265.13;;;10.19;100.00
57192;BME280;43052;52.588;13.396;2024-02-15T03:12:44;101271.28;;;10.29;100.00
57192;BME280;43052;52.588;13.396;2024-02-15T03:15:13;101266.06;;;10.30;100.00
57192;BME280;43052;52.588;13.396;2024-02-15T03:17:40;101269.56;;;10.32;100.00
57192;BME280;43052;52.588;13.396;2024-02-15T03:20:07;101265.19;;;10.36;100.00
57192;BME280;43052;52.588;13.396;2024-02-15T03:22:37;101260.84;;;10.33;100.00
57192;BME280;43052;52.588;13.396;2024-02-15T03:25:06;101251.22;;;10.29;100.00
57192;BME280;43052;52.588;13.396;2024-02-15T03:27:34;101266.94;;;10.31;100.00
57192;BME280;43052;52.588;13.396;2024-02-15T03:30:01;101261.69;;;10.29;100.00
57192;BME280;43052;52.588;13.396;2024-02-15T03:32:26;101263.44;;;10.29;100.00
57192;BME280;43052;52.588;13.396;2024-02-15T03:34:52;101266.06;;;10.30;100.00
57192;BME280;43052;52.588;13.396;2024-02-15T03:37:19;101259.06;;;10.29;100.00
57192;BME280;43052;52.588;13.396;2024-02-15T03:39:46;101270.41;;;10.27;100.00
57192;BME280;43052;52.588;13.396;2024-02-15T03:42:11;101270.41;;;10.27;100.00
57192;BME280;43052;52.588;13.396;2024-02-15T03:44:36;101272.16;;;10.28;100.00
57192;BME280;43052;52.588;13.396;2024-02-15T03:47:04;101270.38;;;10.22;100.00
57192;BME280;43052;52.588;13.396;2024-02-15T03:49:30;101271.25;;;10.19;100.00
57192;BME280;43052;52.588;13.396;2024-02-15T03:51:57;101264.28;;;10.18;100.00
57192;BME280;43052;52.588;13.396;2024-02-15T03:54:25;101270.38;;;10.22;100.00
57192;BME280;43052;52.588;13.396;2024-02-15T03:56:51;101268.63;;;10.21;100.00
57192;BME280;43052;52.588;13.396;2024-02-15T03:59:20;101273.00;;;10.22;100.00
57192;BME280;43052;52.588;13.396;2024-02-15T04:01:53;101269.50;;;10.18;100.00
57192;BME280;43052;52.588;13.396;2024-02-15T04:04:19;101270.34;;;10.16;100.00
57192;BME280;43052;52.588;13.396;2024-02-15T04:06:48;101260.78;;;10.15;100.00
57192;BME280;43052;52.588;13.396;2024-02-15T04:09:14;101271.22;;;10.23;100.00
57192;BME280;43052;52.588;13.396;2024-02-15T04:11:40;101269.50;;;10.23;100.00
57192;BME280;43052;52.588;13.396;2024-02-15T04:14:05;101274.72;;;10.20;100.00
57192;BME280;43052;52.588;13.396;2024-02-15T04:16:31;101274.72;;;10.20;100.00
57192;BME280;43052;52.588;13.396;2024-02-15T04:18:59;101271.25;;;10.18;100.00
57192;BME280;43052;52.588;13.396;2024-02-15T04:21:24;101275.59;;;10.21;100.00
57192;BME280;43052;52.588;13.396;2024-02-15T04:23:50;101268.63;;;10.18;100.00
57192;BME280;43052;52.588;13.396;2024-02-15T04:26:17;101264.28;;;10.17;100.00
57192;BME280;43052;52.588;13.396;2024-02-15T04:28:44;101265.16;;;10.21;100.00
57192;BME280;43052;52.588;13.396;2024-02-15T04:31:12;101266.88;;;10.18;100.00
57192;BME280;43052;52.588;13.396;2024-02-15T04:33:38;101266.00;;;10.21;100.00
57192;BME280;43052;52.588;13.396;2024-02-15T04:36:05;101268.63;;;10.23;100.00
57192;BME280;43052;52.588;13.396;2024-02-15T04:38:32;101270.41;;;10.30;100.00
57192;BME280;43052;52.588;13.396;2024-02-15T04:41:01;101273.06;;;10.34;100.00
57192;BME280;43052;52.588;13.396;2024-02-15T04:43:27;101269.56;;;10.35;100.00
57192;BME280;43052;52.588;13.396;2024-02-15T04:45:53;101268.69;;;10.35;100.00
57192;BME280;43052;52.588;13.396;2024-02-15T04:48:18;101267.81;;;10.34;100.00
57192;BME280;43052;52.588;13.396;2024-02-15T04:50:44;101265.19;;;10.33;100.00
57192;BME280;43052;52.588;13.396;2024-02-15T04:53:10;101268.69;;;10.37;100.00
57192;BME280;43052;52.588;13.396;2024-02-15T04:55:36;101271.28;;;10.37;100.00
57192;BME280;43052;52.588;13.396;2024-02-15T04:58:02;101264.31;;;10.34;100.00
57192;BME280;43052;52.588;13.396;2024-02-15T05:00:28;101269.59;;;10.37;100.00
57192;BME280;43052;52.588;13.396;2024-02-15T05:02:54;101273.13;;;10.44;100.00
57192;BME280;43052;52.588;13.396;2024-02-15T05:05:20;101276.63;;;10.54;100.00
57192;BME280;43052;52.588;13.396;2024-02-15T05:07:45;101274.00;;;10.52;100.00
57192;BME280;43052;52.588;13.396;2024-02-15T05:10:11;101269.63;;;10.46;100.00
57192;BME280;43052;52.588;13.396;2024-02-15T05:12:38;101266.13;;;10.40;100.00
57192;BME280;43052;52.588;13.396;2024-02-15T05:15:05;101287.03;;;10.46;100.00
57192;BME280;43052;52.588;13.396;2024-02-15T05:17:39;101286.16;;;10.42;100.00
57192;BME280;43052;52.588;13.396;2024-02-15T05:20:11;101280.00;;;10.34;100.00
57192;BME280;43052;52.588;13.396;2024-02-15T05:22:41;101279.19;;;10.38;100.00
57192;BME280;43052;52.588;13.396;2024-02-15T05:25:16;101282.66;;;10.35;100.00
57192;BME280;43052;52.588;13.396;2024-02-15T05:27:47;101278.25;;;10.30;100.00
57192;BME280;43052;52.588;13.396;2024-02-15T05:30:13;101278.22;;;10.28;100.00
57192;BME280;43052;52.588;13.396;2024-02-15T05:32:39;101280.06;;;10.37;100.00
57192;BME280;43052;52.588;13.396;2024-02-15T05:35:09;101279.19;;;10.41;100.00
57192;BME280;43052;52.588;13.396;2024-02-15T05:37:36;101279.22;;;10.43;100.00
57192;BME280;43052;52.588;13.396;2024-02-15T05:40:02;101271.34;;;10.40;100.00
57192;BME280;43052;52.588;13.396;2024-02-15T05:42:30;101280.97;;;10.52;100.00
57192;BME280;43052;52.588;13.396;2024-02-15T05:47:55;101278.38;;;10.58;100.00
57192;BME280;43052;52.588;13.396;2024-02-15T05:50:20;101273.16;;;10.53;100.00
57192;BME280;43052;52.588;13.396;2024-02-15T05:52:49;101279.25;;;10.57;100.00
57192;BME280;43052;52.588;13.396;2024-02-15T05:55:16;101286.22;;;10.53;100.00
57192;BME280;43052;52.588;13.396;2024-02-15T05:57:43;101280.97;;;10.52;100.00
57192;BME280;43052;52.588;13.396;2024-02-15T06:00:09;101279.25;;;10.54;100.00
57192;BME280;43052;52.588;13.396;2024-02-15T06:02:34;101283.59;;;10.56;100.00
57192;BME280;43052;52.588;13.396;2024-02-15T06:05:00;101287.97;;;10.62;100.00
57192;BME280;43052;52.588;13.396;2024-02-15T06:07:29;101270.53;;;10.53;100.00
57192;BME280;43052;52.588;13.396;2024-02-15T06:09:54;101276.63;;;10.58;100.00
57192;BME280;43052;52.588;13.396;2024-02-15T06:12:20;101276.66;;;10.61;100.00
57192;BME280;43052;52.588;13.396;2024-02-15T06:14:46;101274.91;;;10.62;100.00
57192;BME280;43052;52.588;13.396;2024-02-15T06:17:11;101275.75;;;10.61;100.00
57192;BME280;43052;52.588;13.396;2024-02-15T06:19:37;101276.63;;;10.60;100.00
57192;BME280;43052;52.588;13.396;2024-02-15T06:22:03;101274.03;;;10.58;100.00
57192;BME280;43052;52.588;13.396;2024-02-15T06:24:29;101281.88;;;10.64;100.00
57192;BME280;43052;52.588;13.396;2024-02-15T06:26:55;101287.09;;;10.63;100.00
57192;BME280;43052;52.588;13.396;2024-02-15T06:29:25;101284.50;;;10.63;100.00
57192;BME280;43052;52.588;13.396;2024-02-15T06:32:09;101294.13;;;10.73;100.00
57192;BME280;43052;52.588;13.396;2024-02-15T06:34:53;101294.09;;;10.75;100.00
57192;BME280;43052;52.588;13.396;2024-02-15T06:37:39;101293.22;;;10.73;100.00
57192;BME280;43052;52.588;13.396;2024-02-15T06:40:24;101303.69;;;10.77;100.00
57192;BME280;43052;52.588;13.396;2024-02-15T06:42:49;101296.72;;;10.75;100.00
57192;BME280;43052;52.588;13.396;2024-02-15T06:45:16;101293.22;;;10.73;100.00
57192;BME280;43052;52.588;13.396;2024-02-15T06:47:42;101305.44;;;10.80;100.00
57192;BME280;43052;52.588;13.396;2024-02-15T06:50:11;101293.22;;;10.73;100.00
57192;BME280;43052;52.588;13.396;2024-02-15T06:52:38;101298.47;;;10.76;100.00
57192;BME280;43052;52.588;13.396;2024-02-15T06:55:06;101296.72;;;10.73;100.00
57192;BME280;43052;52.588;13.396;2024-02-15T06:57:33;101308.06;;;10.77;100.00
57192;BME280;43052;52.588;13.396;2024-02-15T07:00:04;101299.34;;;10.78;100.00
57192;BME280;43052;52.588;13.396;2024-02-15T07:02:33;101310.69;;;10.81;100.00
57192;BME280;43052;52.588;13.396;2024-02-15T07:04:59;101318.56;;;10.88;100.00
57192;BME280;43052;52.588;13.396;2024-02-15T07:07:24;101324.69;;;10.94;100.00
57192;BME280;43052;52.588;13.396;2024-02-15T07:09:50;101319.44;;;10.97;100.00
57192;BME280;43052;52.588;13.396;2024-02-15T07:12:16;101313.31;;;10.94;100.00
57192;BME280;43052;52.588;13.396;2024-02-15T07:14:42;101307.22;;;10.93;100.00
57192;BME280;43052;52.588;13.396;2024-02-15T07:17:13;101316.84;;;11.04;100.00
57192;BME280;43052;52.588;13.396;2024-02-15T07:19:43;101317.72;;;11.06;100.00
57192;BME280;43052;52.588;13.396;2024-02-15T07:22:10;101319.44;;;11.07;100.00
57192;BME280;43052;52.588;13.396;2024-02-15T07:24:35;101321.19;;;11.03;100.00
57192;BME280;43052;52.588;13.396;2024-02-15T07:27:06;101309.84;;;11.00;100.00
57192;BME280;43052;52.588;13.396;2024-02-15T07:29:32;101315.09;;;11.03;100.00
57192;BME280;43052;52.588;13.396;2024-02-15T07:32:00;101308.09;;;11.02;100.00
57192;BME280;43052;52.588;13.396;2024-02-15T07:34:26;101321.19;;;11.08;100.00
57192;BME280;43052;52.588;13.396;2024-02-15T07:36:52;101322.06;;;11.10;100.00
57192;BME280;43052;52.588;13.396;2024-02-15T07:39:17;101321.19;;;11.08;100.00
57192;BME280;43052;52.588;13.396;2024-02-15T07:41:53;101326.47;;;11.14;100.00
57192;BME280;43052;52.588;13.396;2024-02-15T07:44:19;101330.81;;;11.18;100.00
57192;BME280;43052;52.588;13.396;2024-02-15T07:46:46;101322.97;;;11.18;100.00
57192;BME280;43052;52.588;13.396;2024-02-15T07:49:11;101328.22;;;11.31;100.00
57192;BME280;43052;52.588;13.396;2024-02-15T07:51:37;101329.06;;;11.36;100.00
57192;BME280;43052;52.588;13.396;2024-02-15T07:54:03;101322.09;;;11.39;100.00
57192;BME280;43052;52.588;13.396;2024-02-15T07:56:28;101316.84;;;11.53;100.00
57192;BME280;43052;52.588;13.396;2024-02-15T07:58:54;101322.97;;;11.63;100.00
57192;BME280;43052;52.588;13.396;2024-02-15T08:01:19;101325.56;;;11.71;100.00
57192;BME280;43052;52.588;13.396;2024-02-15T08:03:48;101333.41;;;11.85;100.00
57192;BME280;43052;52.588;13.396;2024-02-15T08:06:15;101313.34;;;11.82;100.00
57192;BME280;43052;52.588;13.396;2024-02-15T08:08:42;101326.44;;;11.98;100.00
57192;BME280;43052;52.588;13.396;2024-02-15T08:11:11;101324.69;;;11.98;100.00
57192;BME280;43052;52.588;13.396;2024-02-15T08:13:43;101307.22;;;11.99;100.00
57192;BME280;43052;52.588;13.396;2024-02-15T08:16:10;101323.78;;;12.09;100.00
57192;BME280;43052;52.588;13.396;2024-02-15T08:18:36;101322.94;;;12.06;100.00
57192;BME280;43052;52.588;13.396;2024-02-15T08:21:03;101323.75;;;12.13;100.00
57192;BME280;43052;52.588;13.396;2024-02-15T08:23:29;101322.00;;;12.12;100.00
57192;BME280;43052;52.588;13.396;2024-02-15T08:25:54;101331.59;;;12.27;100.00
57192;BME280;43052;52.588;13.396;2024-02-15T08:28:20;101319.38;;;12.28;100.00
57192;BME280;43052;52.588;13.396;2024-02-15T08:30:46;101320.19;;;12.33;100.00
57192;BME280;43052;52.588;13.396;2024-02-15T08:33:12;101335.94;;;12.36;100.00
57192;BME280;43052;52.588;13.396;2024-02-15T08:35:38;101335.06;;;12.37;100.00
57192;BME280;43052;52.588;13.396;2024-02-15T08:38:06;101330.69;;;12.36;100.00
57192;BME280;43052;52.588;13.396;2024-02-15T08:40:32;101333.28;;;12.39;100.00
57192;BME280;43052;52.588;13.396;2024-02-15T08:42:57;101311.50;;;12.25;100.00
57192;BME280;43052;52.588;13.396;2024-02-15T08:45:23;101330.69;;;12.30;100.00
57192;BME280;43052;52.588;13.396;2024-02-15T08:47:48;101323.72;;;12.30;99.86
57192;BME280;43052;52.588;13.396;2024-02-15T08:50:18;101309.75;;;12.19;99.89
57192;BME280;43052;52.588;13.396;2024-02-15T08:52:44;101304.56;;;12.08;99.90
57192;BME280;43052;52.588;13.396;2024-02-15T08:55:10;101335.09;;;12.20;100.00
57192;BME280;43052;52.588;13.396;2024-02-15T08:57:40;101330.69;;;12.30;100.00
57192;BME280;43052;52.588;13.396;2024-02-15T09:00:07;101337.66;;;12.42;99.60
57192;BME280;43052;52.588;13.396;2024-02-15T09:02:48;101328.88;;;12.49;98.93
57192;BME280;43052;52.588;13.396;2024-02-15T09:05:18;101317.50;;;12.54;98.96
57192;BME280;43052;52.588;13.396;2024-02-15T09:07:45;101323.56;;;12.67;98.75
57192;BME280;43052;52.588;13.396;2024-02-15T09:10:14;101317.41;;;12.70;98.53
57192;BME280;43052;52.588;13.396;2024-02-15T09:12:43;101329.56;;;12.87;98.29
57192;BME280;43052;52.588;13.396;2024-02-15T09:15:11;101326.84;;;13.02;98.08
57192;BME280;43052;52.588;13.396;2024-02-15T09:17:37;101320.59;;;13.19;97.68
57192;BME280;43052;52.588;13.396;2024-02-15T09:20:06;101327.41;;;13.47;97.10
57192;BME280;43052;52.588;13.396;2024-02-15T09:22:32;101327.31;;;13.58;96.31
57192;BME280;43052;52.588;13.396;2024-02-15T09:24:58;101322.84;;;13.67;95.68
57192;BME280;43052;52.588;13.396;2024-02-15T09:27:24;101314.13;;;13.63;95.73
57192;BME280;43052;52.588;13.396;2024-02-15T09:29:49;101329.00;;;13.66;94.98
57192;BME280;43052;52.588;13.396;2024-02-15T09:32:15;101318.53;;;13.59;94.81
57192;BME280;43052;52.588;13.396;2024-02-15T09:34:40;101316.03;;;13.45;94.38
57192;BME280;43052;52.588;13.396;2024-02-15T09:37:07;101326.59;;;13.39;94.28
57192;BME280;43052;52.588;13.396;2024-02-15T09:39:32;101328.41;;;13.28;93.96
57192;BME280;43052;52.588;13.396;2024-02-15T09:41:58;101338.13;;;13.13;94.37
57192;BME280;43052;52.588;13.396;2024-02-15T09:44:27;101341.72;;;13.03;94.17
57192;BME280;43052;52.588;13.396;2024-02-15T09:47:03;101342.59;;;13.02;94.03
57192;BME280;43052;52.588;13.396;2024-02-15T09:49:37;101345.31;;;12.90;94.12
57192;BME280;43052;52.588;13.396;2024-02-15T09:52:08;101336.59;;;12.80;94.42
57192;BME280;43052;52.588;13.396;2024-02-15T09:54:43;101350.59;;;12.80;94.37
57192;BME280;43052;52.588;13.396;2024-02-15T09:57:09;101342.75;;;12.76;94.39
57192;BME280;43052;52.588;13.396;2024-02-15T09:59:38;101361.09;;;12.82;94.34
57192;BME280;43052;52.588;13.396;2024-02-15T10:02:05;101336.63;;;12.70;94.16
57192;BME280;43052;52.588;13.396;2024-02-15T10:04:39;101336.69;;;12.64;94.66
57192;BME280;43052;52.588;13.396;2024-02-15T10:07:05;101351.47;;;12.76;94.70
57192;BME280;43052;52.588;13.396;2024-02-15T10:09:31;101348.84;;;12.84;94.69
57192;BME280;43052;52.588;13.396;2024-02-15T10:11:58;101356.69;;;12.85;94.83
57192;BME280;43052;52.588;13.396;2024-02-15T10:14:29;101339.22;;;12.81;94.87
57192;BME280;43052;52.588;13.396;2024-02-15T10:16:55;101351.34;;;13.03;94.75
57192;BME280;43052;52.588;13.396;2024-02-15T10:19:22;101335.47;;;13.20;94.39
57192;BME280;43052;52.588;13.396;2024-02-15T10:22:05;101357.19;;;13.48;93.66
57192;BME280;43052;52.588;13.396;2024-02-15T10:24:35;101327.44;;;13.43;93.58
57192;BME280;43052;52.588;13.396;2024-02-15T10:27:03;101356.16;;;13.63;93.51
57192;BME280;43052;52.588;13.396;2024-02-15T10:29:30;101341.28;;;13.62;93.04
57192;BME280;43052;52.588;13.396;2024-02-15T10:31:59;101348.16;;;13.77;92.89
57192;BME280;43052;52.588;13.396;2024-02-15T10:34:24;101333.38;;;13.68;92.41
57192;BME280;43052;52.588;13.396;2024-02-15T10:37:13;101346.44;;;13.74;92.09
57192;BME280;43052;52.588;13.396;2024-02-15T10:39:39;101349.09;;;13.73;92.08
57192;BME280;43052;52.588;13.396;2024-02-15T10:42:06;101341.16;;;13.76;92.27
57192;BME280;43052;52.588;13.396;2024-02-15T10:44:32;101348.94;;;13.85;92.08
57192;BME280;43052;52.588;13.396;2024-02-15T10:46:59;101340.13;;;13.91;91.70
57192;BME280;43052;52.588;13.396;2024-02-15T10:49:28;101336.56;;;13.98;91.59
57192;BME280;43052;52.588;13.396;2024-02-15T10:52:01;101321.63;;;14.02;91.16
57192;BME280;43052;52.588;13.396;2024-02-15T10:55:03;101344.78;;;14.47;89.67
57192;BME280;43052;52.588;13.396;2024-02-15T10:57:31;101347.16;;;14.70;89.27
57192;BME280;43052;52.588;13.396;2024-02-15T10:59:59;101347.16;;;14.70;89.27
57192;BME280;43052;52.588;13.396;2024-02-15T11:02:37;101330.06;;;15.00;88.70
57192;BME280;43052;52.588;13.396;2024-02-15T11:05:33;101344.59;;;15.26;86.69
57192;BME280;43052;52.588;13.396;2024-02-15T11:08:04;101342.88;;;15.22;86.26
57192;BME280;43052;52.588;13.396;2024-02-15T11:10:55;101334.00;;;15.29;86.77
57192;BME280;43052;52.588;13.396;2024-02-15T11:13:24;101330.06;;;15.54;86.69
57192;BME280;43052;52.588;13.396;2024-02-15T11:15:51;101321.72;;;15.80;85.05
57192;BME280;43052;52.588;13.396;2024-02-15T11:21:17;101330.28;;;15.93;83.24
57192;BME280;43052;52.588;13.396;2024-02-15T11:23:44;101317.63;;;15.62;83.19
57192;BME280;43052;52.588;13.396;2024-02-15T11:26:45;101324.22;;;15.38;83.44
57192;BME280;43052;52.588;13.396;2024-02-15T11:29:51;101326.34;;;15.12;84.25
57192;BME280;43052;52.588;13.396;2024-02-15T11:32:36;101327.44;;;14.97;84.48
57192;BME280;43052;52.588;13.396;2024-02-15T11:35:08;101325.69;;;14.99;84.55
57192;BME280;43052;52.588;13.396;2024-02-15T11:37:56;101322.78;;;15.15;84.51
57192;BME280;43052;52.588;13.396;2024-02-15T11:40:25;101332.09;;;15.39;84.01
57192;BME280;43052;52.588;13.396;2024-02-15T11:42:56;101315.38;;;15.39;83.73
57192;BME280;43052;52.588;13.396;2024-02-15T11:45:57;101321.72;;;15.27;83.27
57192;BME280;43052;52.588;13.396;2024-02-15T11:48:24;101324.53;;;15.16;83.67
57192;BME280;43052;52.588;13.396;2024-02-15T11:50:49;101320.28;;;15.09;84.22
57192;BME280;43052;52.588;13.396;2024-02-15T11:53:15;101314.78;;;15.21;84.32
57192;BME280;43052;52.588;13.396;2024-02-15T11:55:41;101316.16;;;15.45;84.09
57192;BME280;43052;52.588;13.396;2024-02-15T11:58:09;101313.31;;;15.56;83.85
57192;BME280;43052;52.588;13.396;2024-02-15T12:00:36;101320.41;;;15.54;83.32
57192;BME280;43052;52.588;13.396;2024-02-15T12:03:21;101304.75;;;15.43;83.34
57192;BME280;43052;52.588;13.396;2024-02-15T12:06:08;101312.94;;;15.29;83.37
57192;BME280;43052;52.588;13.396;2024-02-15T12:08:54;101314.94;;;15.13;83.68
57192;BME280;43052;52.588;13.396;2024-02-15T12:11:39;101321.28;;;14.98;84.12
57192;BME280;43052;52.588;13.396;2024-02-15T12:14:24;101308.31;;;14.86;84.70
57192;BME280;43052;52.588;13.396;2024-02-15T12:17:12;101316.19;;;14.86;84.94
57192;BME280;43052;52.588;13.396;2024-02-15T12:19:59;101314.56;;;14.79;84.73
57192;BME280;43052;52.588;13.396;2024-02-15T12:22:28;101297.16;;;14.65;85.09
57192;BME280;43052;52.588;13.396;2024-02-15T12:24:57;101292.88;;;14.56;85.31
57192;BME280;43052;52.588;13.396;2024-02-15T12:27:24;101308.66;;;14.60;85.91
57192;BME280;43052;52.588;13.396;2024-02-15T12:29:59;101298.91;;;14.65;86.09
57192;BME280;43052;52.588;13.396;2024-02-15T12:32:26;101299.75;;;14.71;86.14
57192;BME280;43052;52.588;13.396;2024-02-15T12:34:52;101300.47;;;14.81;86.12
57192;BME280;43052;52.588;13.396;2024-02-15T12:37:20;101288.22;;;14.79;85.82
57192;BME280;43052;52.588;13.396;2024-02-15T12:39:49;101289.88;;;14.86;85.64
57192;BME280;43052;52.588;13.396;2024-02-15T12:42:16;101287.19;;;14.89;85.43
57192;BME280;43052;52.588;13.396;2024-02-15T12:44:48;101282.81;;;14.88;85.17
57192;BME280;43052;52.588;13.396;2024-02-15T12:47:20;101287.03;;;15.00;85.00
57192;BME280;43052;52.588;13.396;2024-02-15T12:49:46;101273.81;;;15.03;84.80